WMKM METAR and TAF | Updated Today

WMKM METAR

Malacca Airport

Observation time: 34 min. ago

WMKM 251900Z 00000KT 9999 FEW028 23/22 Q1010

Need help? Read our tutorial on how to read METARs or read the parsed version below.

Malacca Airport (WMKM) METAR

  • Weather conditions on Wed, 25 May 2022 19:00:00 +0000 (34 min. ago):
  • Present conditions: Dry
  • Clouds: A few at 853 meters
  • Visibility: Greater than 10 km
  • Wind: Calm
  • Temperature: 23 celsius
  • Dew point: 22 celsius
  • Pressure: 1010 millibars
  • Remarks: None


Useful to know...

WMKM TAF

Malacca Airport

TAF WMKM 251700Z 2518/2618 VRB02KT 9999 FEW030 TEMPO 2603/2608 26008G22KT
Observation time: 2:34 hr. ago
Need help? Read our tutorial on how to read TAFs or read the parsed version below.

Parsed version of TAF for Malacca Airport (WMKM)

  • From 25 May at 18:00 UTC, to day 26 of the month at 18:00 UTC
  • Clouds: A few at 914 meters
  • Visibility: Greater than 10 km
  • Wind: Variable at 2
  • Expected to arise temporarily, from 26 May at 03:00 UTC, to day 26 of the month at 08:00 UTC
  • Wind: 260 degrees at 8